sensor_id;sensor_type;location;lat;lon;timestamp;pressure;altitude;pressure_sealevel;temperature;humidity
35226;BME280;21813;49.686;21.766;2022-09-09T00:00:05;97991.13;;;18.19;100.00
35226;BME280;21813;49.686;21.766;2022-09-09T00:09:28;98014.06;;;18.33;100.00
35226;BME280;21813;49.686;21.766;2022-09-09T00:12:35;97990.03;;;18.28;100.00
35226;BME280;21813;49.686;21.766;2022-09-09T00:15:25;97997.31;;;18.40;100.00
35226;BME280;21813;49.686;21.766;2022-09-09T00:30:18;98007.97;;;18.47;100.00
35226;BME280;21813;49.686;21.766;2022-09-09T00:32:59;97995.88;;;18.38;100.00
35226;BME280;21813;49.686;21.766;2022-09-09T00:35:34;98016.72;;;18.47;100.00
35226;BME280;21813;49.686;21.766;2022-09-09T00:41:47;98035.13;;;18.56;100.00
35226;BME280;21813;49.686;21.766;2022-09-09T01:19:06;98006.16;;;18.33;100.00
35226;BME280;21813;49.686;21.766;2022-09-09T01:26:48;98026.56;;;18.39;100.00
35226;BME280;21813;49.686;21.766;2022-09-09T01:33:46;98027.53;;;18.38;100.00
35226;BME280;21813;49.686;21.766;2022-09-09T01:37:56;98057.09;;;18.56;100.00
35226;BME280;21813;49.686;21.766;2022-09-09T02:44:31;98070.97;;;18.50;100.00
35226;BME280;21813;49.686;21.766;2022-09-09T02:52:50;98079.06;;;18.48;100.00
35226;BME280;21813;49.686;21.766;2022-09-09T03:38:01;98064.31;;;17.79;100.00
35226;BME280;21813;49.686;21.766;2022-09-09T03:44:08;98067.47;;;17.75;100.00
35226;BME280;21813;49.686;21.766;2022-09-09T03:46:38;98089.78;;;17.87;100.00
35226;BME280;21813;49.686;21.766;2022-09-09T03:49:03;98076.50;;;17.80;100.00
35226;BME280;21813;49.686;21.766;2022-09-09T03:55:45;98086.56;;;17.77;100.00
35226;BME280;21813;49.686;21.766;2022-09-09T03:58:15;98079.53;;;17.69;100.00
35226;BME280;21813;49.686;21.766;2022-09-09T04:00:52;98093.34;;;17.71;100.00
35226;BME280;21813;49.686;21.766;2022-09-09T04:03:20;98084.66;;;17.62;100.00
35226;BME280;21813;49.686;21.766;2022-09-09T04:05:51;98103.84;;;17.79;100.00
35226;BME280;21813;49.686;21.766;2022-09-09T04:08:18;98099.44;;;17.72;100.00
35226;BME280;21813;49.686;21.766;2022-09-09T04:10:55;98103.53;;;17.74;100.00
35226;BME280;21813;49.686;21.766;2022-09-09T04:13:37;98101.91;;;17.73;100.00
35226;BME280;21813;49.686;21.766;2022-09-09T04:19:09;98077.94;;;17.52;100.00
35226;BME280;21813;49.686;21.766;2022-09-09T04:25:00;98084.19;;;17.59;100.00
35226;BME280;21813;49.686;21.766;2022-09-09T04:27:52;98108.22;;;17.64;100.00
35226;BME280;21813;49.686;21.766;2022-09-09T04:30:45;98101.31;;;17.55;100.00
35226;BME280;21813;49.686;21.766;2022-09-09T04:35:45;98108.28;;;17.48;100.00
35226;BME280;21813;49.686;21.766;2022-09-09T04:38:15;98122.41;;;17.55;100.00
35226;BME280;21813;49.686;21.766;2022-09-09T04:40:44;98083.97;;;17.30;100.00
35226;BME280;21813;49.686;21.766;2022-09-09T04:43:15;98119.50;;;17.42;100.00
35226;BME280;21813;49.686;21.766;2022-09-09T04:45:50;98097.31;;;17.28;100.00
35226;BME280;21813;49.686;21.766;2022-09-09T04:48:25;98112.94;;;17.38;100.00
35226;BME280;21813;49.686;21.766;2022-09-09T04:51:12;98098.47;;;17.26;100.00
35226;BME280;21813;49.686;21.766;2022-09-09T05:13:23;98132.00;;;17.40;100.00
35226;BME280;21813;49.686;21.766;2022-09-09T05:15:53;98135.63;;;17.39;100.00
35226;BME280;21813;49.686;21.766;2022-09-09T05:18:19;98152.25;;;17.47;100.00
35226;BME280;21813;49.686;21.766;2022-09-09T05:21:03;98135.47;;;17.40;100.00
35226;BME280;21813;49.686;21.766;2022-09-09T05:23:42;98140.75;;;17.40;100.00
35226;BME280;21813;49.686;21.766;2022-09-09T05:40:52;98120.25;;;17.19;100.00
35226;BME280;21813;49.686;21.766;2022-09-09T05:43:34;98139.59;;;17.35;100.00
35226;BME280;21813;49.686;21.766;2022-09-09T05:46:12;98146.34;;;17.37;100.00
35226;BME280;21813;49.686;21.766;2022-09-09T05:59:02;98151.44;;;17.39;100.00
35226;BME280;21813;49.686;21.766;2022-09-09T06:01:31;98137.66;;;17.29;100.00
35226;BME280;21813;49.686;21.766;2022-09-09T06:04:19;98170.84;;;17.46;100.00
35226;BME280;21813;49.686;21.766;2022-09-09T06:07:10;98145.22;;;17.32;100.00
35226;BME280;21813;49.686;21.766;2022-09-09T06:12:16;98192.59;;;17.48;100.00
35226;BME280;21813;49.686;21.766;2022-09-09T06:15:31;98190.75;;;17.48;100.00
35226;BME280;21813;49.686;21.766;2022-09-09T06:32:51;98197.16;;;17.54;100.00
35226;BME280;21813;49.686;21.766;2022-09-09T07:03:30;98222.50;;;17.79;100.00
35226;BME280;21813;49.686;21.766;2022-09-09T07:19:35;98238.16;;;18.12;100.00
35226;BME280;21813;49.686;21.766;2022-09-09T07:22:27;98243.38;;;18.20;100.00
35226;BME280;21813;49.686;21.766;2022-09-09T07:25:21;98224.91;;;18.20;100.00
35226;BME280;21813;49.686;21.766;2022-09-09T07:28:05;98241.97;;;18.32;100.00
35226;BME280;21813;49.686;21.766;2022-09-09T07:40:02;98224.44;;;21.72;89.06
35226;BME280;21813;49.686;21.766;2022-09-09T07:54:46;98229.72;;;21.31;84.24
35226;BME280;21813;49.686;21.766;2022-09-09T07:57:26;98246.72;;;22.18;81.40
35226;BME280;21813;49.686;21.766;2022-09-09T08:00:36;98255.50;;;23.19;76.49
35226;BME280;21813;49.686;21.766;2022-09-09T08:03:18;98237.69;;;22.80;77.08
35226;BME280;21813;49.686;21.766;2022-09-09T08:06:08;98248.69;;;22.03;79.79
35226;BME280;21813;49.686;21.766;2022-09-09T08:23:11;98250.00;;;20.03;89.51
35226;BME280;21813;49.686;21.766;2022-09-09T08:34:14;98275.91;;;20.07;90.79
35226;BME280;21813;49.686;21.766;2022-09-09T08:56:23;98274.28;;;19.48;93.58
35226;BME280;21813;49.686;21.766;2022-09-09T09:15:14;98273.03;;;19.58;93.03
35226;BME280;21813;49.686;21.766;2022-09-09T09:17:57;98269.72;;;19.71;92.29
35226;BME280;21813;49.686;21.766;2022-09-09T09:21:16;98256.72;;;19.69;91.05
35226;BME280;21813;49.686;21.766;2022-09-09T09:24:33;98275.28;;;19.91;90.23
35226;BME280;21813;49.686;21.766;2022-09-09T09:37:28;98283.22;;;20.20;87.94
35226;BME280;21813;49.686;21.766;2022-09-09T09:40:26;98255.28;;;20.17;87.34
35226;BME280;21813;49.686;21.766;2022-09-09T09:47:20;98271.03;;;20.40;84.88
35226;BME280;21813;49.686;21.766;2022-09-09T09:50:00;98260.56;;;20.32;84.76
35226;BME280;21813;49.686;21.766;2022-09-09T09:56:14;98260.75;;;20.31;84.68
35226;BME280;21813;49.686;21.766;2022-09-09T09:58:58;98270.41;;;20.38;84.31
35226;BME280;21813;49.686;21.766;2022-09-09T10:01:29;98293.00;;;20.55;84.31
35226;BME280;21813;49.686;21.766;2022-09-09T11:02:44;98313.69;;;20.16;88.63
35226;BME280;21813;49.686;21.766;2022-09-09T11:05:23;98312.66;;;20.17;88.95
35226;BME280;21813;49.686;21.766;2022-09-09T11:07:59;98298.53;;;20.10;89.37
35226;BME280;21813;49.686;21.766;2022-09-09T11:13:35;98317.25;;;20.23;89.17
35226;BME280;21813;49.686;21.766;2022-09-09T11:16:39;98302.47;;;20.14;88.34
35226;BME280;21813;49.686;21.766;2022-09-09T11:19:36;98296.78;;;20.17;87.78
35226;BME280;21813;49.686;21.766;2022-09-09T11:22:51;98309.94;;;20.25;86.87
35226;BME280;21813;49.686;21.766;2022-09-09T11:35:20;98325.53;;;20.49;86.06
35226;BME280;21813;49.686;21.766;2022-09-09T11:40:37;98317.78;;;20.48;86.06
35226;BME280;21813;49.686;21.766;2022-09-09T11:59:33;98316.88;;;20.98;79.72
35226;BME280;21813;49.686;21.766;2022-09-09T12:05:14;98312.41;;;20.98;79.02
35226;BME280;21813;49.686;21.766;2022-09-09T12:08:26;98297.69;;;20.96;78.51
35226;BME280;21813;49.686;21.766;2022-09-09T12:24:03;98283.66;;;21.44;78.36
35226;BME280;21813;49.686;21.766;2022-09-09T12:40:43;98282.16;;;21.35;77.65
35226;BME280;21813;49.686;21.766;2022-09-09T12:46:53;98286.97;;;21.25;78.05
35226;BME280;21813;49.686;21.766;2022-09-09T12:49:49;98294.84;;;21.19;77.64
35226;BME280;21813;49.686;21.766;2022-09-09T12:55:32;98314.47;;;21.24;78.69
35226;BME280;21813;49.686;21.766;2022-09-09T12:58:16;98308.59;;;21.29;78.12
35226;BME280;21813;49.686;21.766;2022-09-09T13:01:01;98296.75;;;21.25;78.91
35226;BME280;21813;49.686;21.766;2022-09-09T13:03:42;98297.25;;;21.35;78.92
35226;BME280;21813;49.686;21.766;2022-09-09T13:09:39;98283.00;;;21.42;78.09
35226;BME280;21813;49.686;21.766;2022-09-09T13:12:14;98292.88;;;21.55;77.70
35226;BME280;21813;49.686;21.766;2022-09-09T13:14:43;98272.06;;;21.52;77.37
35226;BME280;21813;49.686;21.766;2022-09-09T13:17:28;98280.09;;;21.65;77.76
35226;BME280;21813;49.686;21.766;2022-09-09T13:20:14;98285.28;;;21.80;77.34
35226;BME280;21813;49.686;21.766;2022-09-09T13:22:48;98284.28;;;21.81;76.36
35226;BME280;21813;49.686;21.766;2022-09-09T13:25:27;98295.63;;;21.96;77.14
35226;BME280;21813;49.686;21.766;2022-09-09T13:28:05;98289.94;;;21.99;76.34
35226;BME280;21813;49.686;21.766;2022-09-09T13:30:55;98262.88;;;21.89;76.15
35226;BME280;21813;49.686;21.766;2022-09-09T13:33:44;98275.88;;;22.05;75.84
35226;BME280;21813;49.686;21.766;2022-09-09T13:36:12;98278.53;;;22.05;74.29
35226;BME280;21813;49.686;21.766;2022-09-09T13:38:59;98252.69;;;21.86;74.65
35226;BME280;21813;49.686;21.766;2022-09-09T13:41:34;98284.03;;;22.03;75.14
35226;BME280;21813;49.686;21.766;2022-09-09T13:44:01;98280.16;;;22.06;74.45
35226;BME280;21813;49.686;21.766;2022-09-09T13:46:36;98273.63;;;22.09;74.00
35226;BME280;21813;49.686;21.766;2022-09-09T13:49:20;98266.28;;;22.11;73.91
35226;BME280;21813;49.686;21.766;2022-09-09T13:51:51;98264.22;;;22.06;73.16
35226;BME280;21813;49.686;21.766;2022-09-09T13:54:19;98260.78;;;22.06;73.88
35226;BME280;21813;49.686;21.766;2022-09-09T13:56:46;98238.03;;;21.96;73.80
35226;BME280;21813;49.686;21.766;2022-09-09T13:59:16;98235.59;;;21.95;74.77
35226;BME280;21813;49.686;21.766;2022-09-09T14:01:43;98246.22;;;22.01;74.84
35226;BME280;21813;49.686;21.766;2022-09-09T14:04:10;98252.38;;;22.02;73.79
35226;BME280;21813;49.686;21.766;2022-09-09T14:06:36;98232.50;;;21.91;74.40
35226;BME280;21813;49.686;21.766;2022-09-09T14:09:04;98242.66;;;21.88;75.10
35226;BME280;21813;49.686;21.766;2022-09-09T14:11:30;98234.97;;;21.93;74.84
35226;BME280;21813;49.686;21.766;2022-09-09T14:13:57;98240.59;;;21.83;74.73
35226;BME280;21813;49.686;21.766;2022-09-09T14:16:26;98229.34;;;21.75;74.83
35226;BME280;21813;49.686;21.766;2022-09-09T14:18:53;98243.25;;;21.77;74.80
35226;BME280;21813;49.686;21.766;2022-09-09T14:21:20;98226.88;;;21.67;74.46
35226;BME280;21813;49.686;21.766;2022-09-09T14:23:46;98223.56;;;21.65;74.61
35226;BME280;21813;49.686;21.766;2022-09-09T14:26:14;98211.72;;;21.60;75.21
35226;BME280;21813;49.686;21.766;2022-09-09T14:28:42;98223.38;;;21.66;75.61
35226;BME280;21813;49.686;21.766;2022-09-09T14:31:07;98227.25;;;21.64;75.31
35226;BME280;21813;49.686;21.766;2022-09-09T14:33:33;98210.47;;;21.56;75.15
35226;BME280;21813;49.686;21.766;2022-09-09T14:36:05;98240.34;;;21.72;75.08
35226;BME280;21813;49.686;21.766;2022-09-09T14:42:22;98203.09;;;21.45;75.25
35226;BME280;21813;49.686;21.766;2022-09-09T14:44:56;98200.63;;;21.44;75.85
35226;BME280;21813;49.686;21.766;2022-09-09T14:47:22;98212.66;;;21.46;76.43
35226;BME280;21813;49.686;21.766;2022-09-09T14:49:47;98221.50;;;21.53;77.01
35226;BME280;21813;49.686;21.766;2022-09-09T14:52:17;98215.59;;;21.58;77.14
35226;BME280;21813;49.686;21.766;2022-09-09T14:55:05;98225.22;;;21.66;76.97
35226;BME280;21813;49.686;21.766;2022-09-09T14:57:34;98208.84;;;21.55;77.25
35226;BME280;21813;49.686;21.766;2022-09-09T15:00:10;98214.97;;;21.56;77.02
35226;BME280;21813;49.686;21.766;2022-09-09T15:02:37;98214.41;;;21.67;77.54
35226;BME280;21813;49.686;21.766;2022-09-09T15:05:04;98206.41;;;21.54;76.86
35226;BME280;21813;49.686;21.766;2022-09-09T15:07:29;98221.50;;;21.53;76.93
35226;BME280;21813;49.686;21.766;2022-09-09T15:09:59;98231.69;;;21.50;76.43
35226;BME280;21813;49.686;21.766;2022-09-09T15:12:25;98222.41;;;21.39;77.01
35226;BME280;21813;49.686;21.766;2022-09-09T15:14:50;98221.19;;;21.42;77.18
35226;BME280;21813;49.686;21.766;2022-09-09T15:17:21;98222.25;;;21.41;77.40
35226;BME280;21813;49.686;21.766;2022-09-09T15:19:47;98229.59;;;21.45;77.32
35226;BME280;21813;49.686;21.766;2022-09-09T15:23:00;98215.81;;;21.29;77.58
35226;BME280;21813;49.686;21.766;2022-09-09T15:26:00;98227.31;;;21.36;77.87
35226;BME280;21813;49.686;21.766;2022-09-09T15:28:32;98201.91;;;21.20;78.23
35226;BME280;21813;49.686;21.766;2022-09-09T15:31:09;98223.81;;;21.35;78.58
35226;BME280;21813;49.686;21.766;2022-09-09T15:37:31;98216.56;;;21.23;78.82
35226;BME280;21813;49.686;21.766;2022-09-09T15:40:10;98219.44;;;21.21;78.91
35226;BME280;21813;49.686;21.766;2022-09-09T15:45:09;98217.56;;;21.15;79.69
35226;BME280;21813;49.686;21.766;2022-09-09T15:47:35;98227.28;;;21.08;79.61
35226;BME280;21813;49.686;21.766;2022-09-09T15:50:01;98221.25;;;20.99;79.83
35226;BME280;21813;49.686;21.766;2022-09-09T15:52:27;98222.31;;;20.98;79.86
35226;BME280;21813;49.686;21.766;2022-09-09T15:54:53;98212.03;;;20.89;79.87
35226;BME280;21813;49.686;21.766;2022-09-09T15:57:25;98224.88;;;20.92;80.12
35226;BME280;21813;49.686;21.766;2022-09-09T16:00:13;98215.25;;;20.84;80.94
35226;BME280;21813;49.686;21.766;2022-09-09T16:14:13;98240.81;;;20.70;82.17
35226;BME280;21813;49.686;21.766;2022-09-09T16:19:49;98243.00;;;20.67;82.70
35226;BME280;21813;49.686;21.766;2022-09-09T16:22:15;98251.75;;;20.67;82.64
35226;BME280;21813;49.686;21.766;2022-09-09T16:24:52;98251.75;;;20.67;83.09
35226;BME280;21813;49.686;21.766;2022-09-09T16:27:19;98228.81;;;20.53;82.67
35226;BME280;21813;49.686;21.766;2022-09-09T16:43:20;98245.94;;;20.36;83.80
35226;BME280;21813;49.686;21.766;2022-09-09T16:46:47;98227.41;;;20.21;84.62
35226;BME280;21813;49.686;21.766;2022-09-09T16:49:30;98210.31;;;20.03;85.26
35226;BME280;21813;49.686;21.766;2022-09-09T16:52:05;98233.13;;;20.04;85.61
35226;BME280;21813;49.686;21.766;2022-09-09T16:54:53;98216.28;;;19.90;86.08
35226;BME280;21813;49.686;21.766;2022-09-09T17:06:55;98212.47;;;19.63;88.22
35226;BME280;21813;49.686;21.766;2022-09-09T17:09:36;98224.06;;;19.62;88.79
35226;BME280;21813;49.686;21.766;2022-09-09T17:12:02;98231.97;;;19.62;89.51
35226;BME280;21813;49.686;21.766;2022-09-09T17:14:35;98206.59;;;19.38;89.40
35226;BME280;21813;49.686;21.766;2022-09-09T17:17:01;98227.34;;;19.50;89.61
35226;BME280;21813;49.686;21.766;2022-09-09T17:19:30;98239.38;;;19.52;89.51
35226;BME280;21813;49.686;21.766;2022-09-09T17:22:15;98234.81;;;19.46;89.92
35226;BME280;21813;49.686;21.766;2022-09-09T17:24:58;98245.03;;;19.49;90.68
35226;BME280;21813;49.686;21.766;2022-09-09T17:27:44;98232.59;;;19.35;91.34
35226;BME280;21813;49.686;21.766;2022-09-09T17:30:21;98231.69;;;19.28;91.97
35226;BME280;21813;49.686;21.766;2022-09-09T17:39:47;98248.03;;;19.09;93.80
35226;BME280;21813;49.686;21.766;2022-09-09T17:42:46;98249.56;;;19.03;94.28
35226;BME280;21813;49.686;21.766;2022-09-09T17:45:30;98248.28;;;18.99;94.83
35226;BME280;21813;49.686;21.766;2022-09-09T17:48:14;98247.84;;;18.95;95.44
35226;BME280;21813;49.686;21.766;2022-09-09T17:54:31;98252.63;;;18.77;96.32
35226;BME280;21813;49.686;21.766;2022-09-09T17:57:10;98244.72;;;18.69;97.26
35226;BME280;21813;49.686;21.766;2022-09-09T17:59:39;98264.16;;;18.76;97.65
35226;BME280;21813;49.686;21.766;2022-09-09T18:02:08;98251.59;;;18.56;98.15
35226;BME280;21813;49.686;21.766;2022-09-09T18:04:37;98274.81;;;18.60;99.35
35226;BME280;21813;49.686;21.766;2022-09-09T18:07:04;98273.91;;;18.53;99.71
35226;BME280;21813;49.686;21.766;2022-09-09T18:09:30;98243.69;;;18.25;100.00
35226;BME280;21813;49.686;21.766;2022-09-09T18:16:20;98282.94;;;18.20;100.00
35226;BME280;21813;49.686;21.766;2022-09-09T18:18:49;98268.38;;;18.01;100.00
35226;BME280;21813;49.686;21.766;2022-09-09T18:21:32;98288.63;;;18.00;100.00
35226;BME280;21813;49.686;21.766;2022-09-09T18:24:06;98265.34;;;17.73;100.00
35226;BME280;21813;49.686;21.766;2022-09-09T18:26:34;98296.31;;;17.79;100.00
35226;BME280;21813;49.686;21.766;2022-09-09T18:29:04;98280.09;;;17.90;100.00
35226;BME280;21813;49.686;21.766;2022-09-09T18:31:34;98292.69;;;18.19;100.00
35226;BME280;21813;49.686;21.766;2022-09-09T18:34:02;98284.97;;;18.40;100.00
35226;BME280;21813;49.686;21.766;2022-09-09T18:36:33;98290.28;;;18.71;100.00
35226;BME280;21813;49.686;21.766;2022-09-09T18:39:00;98285.50;;;19.50;95.95
35226;BME280;21813;49.686;21.766;2022-09-09T18:44:27;98280.78;;;19.60;94.35
35226;BME280;21813;49.686;21.766;2022-09-09T18:47:05;98288.19;;;19.79;92.99
35226;BME280;21813;49.686;21.766;2022-09-09T18:49:36;98277.13;;;19.46;94.83
35226;BME280;21813;49.686;21.766;2022-09-09T18:52:23;98288.09;;;18.97;99.24
35226;BME280;21813;49.686;21.766;2022-09-09T18:54:54;98271.63;;;18.95;98.91
35226;BME280;21813;49.686;21.766;2022-09-09T18:57:36;98285.72;;;19.03;98.73
35226;BME280;21813;49.686;21.766;2022-09-09T19:00:07;98277.13;;;18.63;100.00
35226;BME280;21813;49.686;21.766;2022-09-09T19:02:43;98287.84;;;18.31;100.00
35226;BME280;21813;49.686;21.766;2022-09-09T19:05:09;98304.06;;;18.20;100.00
35226;BME280;21813;49.686;21.766;2022-09-09T19:07:35;98287.81;;;18.00;100.00
35226;BME280;21813;49.686;21.766;2022-09-09T19:10:00;98292.81;;;17.87;100.00
35226;BME280;21813;49.686;21.766;2022-09-09T19:12:28;98293.66;;;17.71;100.00
35226;BME280;21813;49.686;21.766;2022-09-09T19:14:54;98295.03;;;17.59;100.00
35226;BME280;21813;49.686;21.766;2022-09-09T19:17:20;98295.06;;;17.43;100.00
35226;BME280;21813;49.686;21.766;2022-09-09T19:19:46;98309.22;;;17.42;100.00
35226;BME280;21813;49.686;21.766;2022-09-09T19:22:12;98301.63;;;17.31;100.00
35226;BME280;21813;49.686;21.766;2022-09-09T19:24:38;98291.44;;;17.28;100.00
35226;BME280;21813;49.686;21.766;2022-09-09T19:27:05;98305.41;;;17.36;100.00
35226;BME280;21813;49.686;21.766;2022-09-09T19:29:33;98290.28;;;17.30;100.00
35226;BME280;21813;49.686;21.766;2022-09-09T19:32:01;98307.38;;;17.34;100.00
35226;BME280;21813;49.686;21.766;2022-09-09T19:34:28;98285.38;;;17.19;100.00
35226;BME280;21813;49.686;21.766;2022-09-09T19:36:54;98279.91;;;17.20;100.00
35226;BME280;21813;49.686;21.766;2022-09-09T19:39:19;98296.72;;;17.28;100.00
35226;BME280;21813;49.686;21.766;2022-09-09T19:41:50;98306.91;;;17.31;100.00
35226;BME280;21813;49.686;21.766;2022-09-09T19:44:16;98306.91;;;17.31;100.00
35226;BME280;21813;49.686;21.766;2022-09-09T19:46:48;98292.78;;;17.15;100.00
35226;BME280;21813;49.686;21.766;2022-09-09T19:49:18;98293.06;;;17.20;100.00
35226;BME280;21813;49.686;21.766;2022-09-09T19:51:47;98312.50;;;17.28;100.00
35226;BME280;21813;49.686;21.766;2022-09-09T19:54:12;98310.22;;;17.25;100.00
35226;BME280;21813;49.686;21.766;2022-09-09T19:56:40;98306.25;;;17.20;100.00
35226;BME280;21813;49.686;21.766;2022-09-09T19:59:10;98295.41;;;17.07;100.00
35226;BME280;21813;49.686;21.766;2022-09-09T20:01:39;98296.22;;;17.00;100.00
35226;BME280;21813;49.686;21.766;2022-09-09T20:04:07;98298.72;;;17.01;100.00
35226;BME280;21813;49.686;21.766;2022-09-09T20:06:35;98294.09;;;16.95;100.00
35226;BME280;21813;49.686;21.766;2022-09-09T20:09:02;98300.19;;;16.96;100.00
35226;BME280;21813;49.686;21.766;2022-09-09T20:11:29;98305.13;;;16.91;100.00
35226;BME280;21813;49.686;21.766;2022-09-09T20:13:55;98305.25;;;16.89;100.00
35226;BME280;21813;49.686;21.766;2022-09-09T20:16:29;98296.53;;;16.81;100.00
35226;BME280;21813;49.686;21.766;2022-09-09T20:19:06;98313.84;;;16.83;100.00
35226;BME280;21813;49.686;21.766;2022-09-09T20:21:35;98306.91;;;16.82;100.00
35226;BME280;21813;49.686;21.766;2022-09-09T20:24:06;98303.47;;;16.73;100.00
35226;BME280;21813;49.686;21.766;2022-09-09T20:26:33;98310.84;;;16.70;100.00
35226;BME280;21813;49.686;21.766;2022-09-09T20:29:05;98298.97;;;16.58;100.00
35226;BME280;21813;49.686;21.766;2022-09-09T20:31:35;98292.69;;;16.51;100.00
35226;BME280;21813;49.686;21.766;2022-09-09T20:34:06;98302.56;;;16.57;100.00
35226;BME280;21813;49.686;21.766;2022-09-09T20:37:16;98309.81;;;16.55;100.00
35226;BME280;21813;49.686;21.766;2022-09-09T20:39:46;98303.22;;;16.51;100.00
35226;BME280;21813;49.686;21.766;2022-09-09T20:42:12;98302.88;;;16.46;100.00
35226;BME280;21813;49.686;21.766;2022-09-09T20:44:38;98296.75;;;16.37;100.00
35226;BME280;21813;49.686;21.766;2022-09-09T20:47:19;98296.25;;;16.33;100.00
35226;BME280;21813;49.686;21.766;2022-09-09T20:49:44;98283.09;;;16.25;100.00
35226;BME280;21813;49.686;21.766;2022-09-09T20:52:16;98300.53;;;16.34;100.00
35226;BME280;21813;49.686;21.766;2022-09-09T20:54:46;98306.97;;;16.32;100.00
35226;BME280;21813;49.686;21.766;2022-09-09T20:57:14;98303.66;;;16.30;100.00
35226;BME280;21813;49.686;21.766;2022-09-09T20:59:47;98290.63;;;16.20;100.00
35226;BME280;21813;49.686;21.766;2022-09-09T21:02:20;98293.63;;;16.25;100.00
35226;BME280;21813;49.686;21.766;2022-09-09T21:04:49;98292.28;;;16.21;100.00
35226;BME280;21813;49.686;21.766;2022-09-09T21:07:15;98304.16;;;16.33;100.00
35226;BME280;21813;49.686;21.766;2022-09-09T21:09:42;98296.91;;;16.27;100.00
35226;BME280;21813;49.686;21.766;2022-09-09T21:12:23;98288.34;;;16.17;100.00
35226;BME280;21813;49.686;21.766;2022-09-09T21:14:53;98297.69;;;16.20;100.00
35226;BME280;21813;49.686;21.766;2022-09-09T21:17:22;98289.81;;;16.20;100.00
35226;BME280;21813;49.686;21.766;2022-09-09T21:19:54;98289.47;;;16.15;100.00
35226;BME280;21813;49.686;21.766;2022-09-09T21:22:31;98278.44;;;16.11;100.00
35226;BME280;21813;49.686;21.766;2022-09-09T21:24:56;98288.34;;;16.17;100.00
35226;BME280;21813;49.686;21.766;2022-09-09T21:27:23;98286.66;;;16.08;100.00
35226;BME280;21813;49.686;21.766;2022-09-09T21:29:50;98312.66;;;16.19;100.00
35226;BME280;21813;49.686;21.766;2022-09-09T21:32:29;98303.44;;;16.15;100.00
35226;BME280;21813;49.686;21.766;2022-09-09T21:34:56;98279.53;;;16.01;100.00
35226;BME280;21813;49.686;21.766;2022-09-09T21:37:22;98292.56;;;16.10;100.00
35226;BME280;21813;49.686;21.766;2022-09-09T21:39:48;98285.34;;;16.04;100.00
35226;BME280;21813;49.686;21.766;2022-09-09T21:42:35;98296.00;;;16.03;100.00
35226;BME280;21813;49.686;21.766;2022-09-09T21:45:01;98312.59;;;16.03;100.00
35226;BME280;21813;49.686;21.766;2022-09-09T21:47:27;98308.31;;;16.02;100.00
35226;BME280;21813;49.686;21.766;2022-09-09T21:50:01;98304.22;;;16.00;100.00
35226;BME280;21813;49.686;21.766;2022-09-09T21:52:29;98302.72;;;15.97;100.00
35226;BME280;21813;49.686;21.766;2022-09-09T21:55:08;98309.63;;;15.98;100.00
35226;BME280;21813;49.686;21.766;2022-09-09T21:57:39;98277.63;;;15.77;100.00
35226;BME280;21813;49.686;21.766;2022-09-09T22:00:13;98290.84;;;15.85;100.00
35226;BME280;21813;49.686;21.766;2022-09-09T22:02:45;98287.53;;;15.83;100.00
35226;BME280;21813;49.686;21.766;2022-09-09T22:05:14;98304.84;;;15.94;100.00
35226;BME280;21813;49.686;21.766;2022-09-09T22:10:41;98315.19;;;15.95;100.00
35226;BME280;21813;49.686;21.766;2022-09-09T22:13:17;98296.38;;;15.82;100.00
35226;BME280;21813;49.686;21.766;2022-09-09T22:16:15;98299.38;;;15.87;100.00
35226;BME280;21813;49.686;21.766;2022-09-09T22:18:53;98298.41;;;15.88;100.00
35226;BME280;21813;49.686;21.766;2022-09-09T22:21:28;98291.13;;;15.82;100.00
35226;BME280;21813;49.686;21.766;2022-09-09T22:23:58;98294.13;;;15.87;100.00
35226;BME280;21813;49.686;21.766;2022-09-09T22:26:29;98267.28;;;15.67;100.00
35226;BME280;21813;49.686;21.766;2022-09-09T22:29:16;98305.31;;;15.89;100.00
35226;BME280;21813;49.686;21.766;2022-09-09T22:31:49;98273.03;;;15.71;100.00
35226;BME280;21813;49.686;21.766;2022-09-09T22:37:19;98289.19;;;15.84;100.00
35226;BME280;21813;49.686;21.766;2022-09-09T22:39:44;98272.56;;;15.75;100.00
35226;BME280;21813;49.686;21.766;2022-09-09T22:42:10;98269.09;;;15.75;100.00
35226;BME280;21813;49.686;21.766;2022-09-09T22:44:38;98281.63;;;15.81;100.00
35226;BME280;21813;49.686;21.766;2022-09-09T22:47:04;98282.41;;;15.81;100.00
35226;BME280;21813;49.686;21.766;2022-09-09T22:49:30;98260.72;;;15.71;100.00
35226;BME280;21813;49.686;21.766;2022-09-09T22:51:56;98267.78;;;15.71;100.00
35226;BME280;21813;49.686;21.766;2022-09-09T22:54:21;98274.34;;;15.75;100.00
35226;BME280;21813;49.686;21.766;2022-09-09T22:56:49;98257.06;;;15.64;100.00
35226;BME280;21813;49.686;21.766;2022-09-09T22:59:17;98255.41;;;15.63;100.00
35226;BME280;21813;49.686;21.766;2022-09-09T23:01:44;98271.22;;;15.71;100.00
35226;BME280;21813;49.686;21.766;2022-09-09T23:04:10;98247.69;;;15.62;100.00
35226;BME280;21813;49.686;21.766;2022-09-09T23:06:39;98243.06;;;15.56;100.00
35226;BME280;21813;49.686;21.766;2022-09-09T23:09:09;98261.47;;;15.64;100.00
35226;BME280;21813;49.686;21.766;2022-09-09T23:11:36;98251.66;;;15.66;100.00
35226;BME280;21813;49.686;21.766;2022-09-09T23:14:06;98235.03;;;15.57;100.00
35226;BME280;21813;49.686;21.766;2022-09-09T23:16:44;98251.66;;;15.66;100.00
35226;BME280;21813;49.686;21.766;2022-09-09T23:19:14;98238.66;;;15.64;100.00
35226;BME280;21813;49.686;21.766;2022-09-09T23:21:45;98250.16;;;15.63;100.00
35226;BME280;21813;49.686;21.766;2022-09-09T23:24:16;98237.19;;;15.62;100.00